McEntire Air National Guard, South Carolina
Current Conditions -  °F | °C
As of 11:58 AM on Thursday 18 Dec 2014 (Local Time) from KMMT Reporting Station
Broken Clouds Broken Clouds  
Wind Chill: 56°   Ceiling: 25000
Heat Index: 56°   Visibility: 10mi
Dew Point: 28°   Wind: 7mph
Humidity: 33%   Direction: 60°ENE
Pressure: 30.15"   Gusts: NA
Location:  33.9203°N, 80.6788°W
Report Text: KMMT 181658Z 06006KT 10SM FEW100 BKN250 13/M02 A3015 RMK AO2A SLP213 T01341025
Loading
Personal Weather Stations






























Interactive Weather Map New forecast layout! Learn more

10-Day Weather Forecast

Advertisements
Track Severe Weather on mobile